Estación Meteorológica Peña el Pijo (Robertgarden) [ 08/17/18 05:39:03 CEST ]

Fecha Hora Presion(HPa) Temp (°C) Humedad % Rocio (°C) Viento ( m/s) Direccion Lluvia 1Hora(mm) Lluvia 24H(mm) LLuvia Total(mm)
2018-Feb-25 01:01:47 999.000 -2.4 70 -7.1         83.39
2018-Feb-25 02:06:11 999.000 -2.7 73 -6.9         83.39
2018-Feb-25 03:01:40 998.900 -3.1 74 -7.1         83.39
2018-Feb-25 04:01:49 998.700 -1.9 76 -5.6         83.39
2018-Feb-25 05:01:36 998.500 -0.5 76 -4.2         83.39
2018-Feb-25 06:01:34 998.900 0.9 76 -2.9         83.39
2018-Feb-25 07:01:56 999.200 1.8 79 -1.5         83.39
2018-Feb-25 08:01:38 999.300 1.6 79 -1.7         83.39
2018-Feb-25 09:01:47 999.800 2.9 81 -0.0         83.39
2018-Feb-25 10:01:44 1000.200 7.5 73 3.0         83.39
2018-Feb-25 11:01:43 1000.100 10.5 56 2.0         83.39
2018-Feb-25 12:01:32 1000.300 8.8 47 -2.0         83.39
2018-Feb-25 13:01:55 1000.200 11.2 35 -3.8 4.1 N     83.39
2018-Feb-25 14:01:53 999.300 11.8 34 -3.7         83.39
2018-Feb-25 15:01:45 999.300 12.9 31 -3.9         83.39
2018-Feb-25 16:01:36 999.400 13.4 29 -4.4         83.39
2018-Feb-25 17:01:42 999.200 12.5 30 -4.6         83.39
2018-Feb-25 18:01:41 999.600 10.5 33 -5.2         83.39
2018-Feb-25 19:01:41 1000.200 8.4 38 -5.1         83.39
2018-Feb-25 20:01:36 1000.800 4.3 49 -5.5         83.39
2018-Feb-25 21:01:43 1001.100 2.6 54 -5.8         83.39
2018-Feb-25 22:02:03 1001.400 1.5 58 -5.9         83.39
2018-Feb-25 23:01:25 1001.300 0.9 63 -5.5         83.39

Temperatura Máxima:13°    Temperatura Mínima:-3°
Presión Máxima:1001.400 Hpa    Presión Mínima:998.500 Hpa


Volver